Time;durP1;ratioP1;P1;durP2;ratioP2;P2;SDS_P1;SDS_P2;PMS_P1;PMS_P2;Temp;Humidity;BMP_temperature;BMP_pressure;BME280_temperature;BME280_humidity;BME280_pressure;Samples;Min_cycle;Max_cycle;Signal;HPM_P1;HPM_P2
2022/07/15 00:02:03;;;;;;;8.73;2.93;;;;;;;;;;5093995;28;20445;-66
2022/07/15 00:04:30;;;;;;;3.07;2.43;;;;;;;;;;5093530;28;20445;-66
2022/07/15 00:06:57;;;;;;;3.27;2.17;;;;;;;;;;5093154;28;20431;-66
2022/07/15 00:10:13;;;;;;;7.47;2.93;;;;;;;;;;5093436;28;20475;-66
2022/07/15 00:12:13;;;;;;;10.90;2.97;;;;;;;;;;5093257;28;20484;-66
2022/07/15 00:14:41;;;;;;;8.63;3.00;;;;;;;;;;5093745;28;20474;-66
2022/07/15 00:17:08;;;;;;;3.87;2.50;;;;;;;;;;5093293;28;20531;-66
2022/07/15 00:19:36;;;;;;;8.43;2.90;;;;;;;;;;5093411;28;20480;-66
2022/07/15 00:22:04;;;;;;;5.53;3.10;;;;;;;;;;5092964;28;20519;-66
2022/07/15 00:24:31;;;;;;;8.40;2.80;;;;;;;;;;5093246;28;20452;-66
2022/07/15 00:26:58;;;;;;;6.63;2.90;;;;;;;;;;5093384;28;20511;-65
2022/07/15 00:29:27;;;;;;;4.53;3.30;;;;;;;;;;5093330;28;20578;-66
2022/07/15 00:31:54;;;;;;;7.17;2.50;;;;;;;;;;5093314;28;20439;-67
2022/07/15 00:34:22;;;;;;;5.40;2.70;;;;;;;;;;5093386;28;20843;-67
2022/07/15 00:36:49;;;;;;;3.53;2.80;;;;;;;;;;5093451;28;20526;-67
2022/07/15 00:39:17;;;;;;;6.87;3.00;;;;;;;;;;5093690;28;20537;-67
2022/07/15 00:41:45;;;;;;;6.80;2.57;;;;;;;;;;5093081;28;20949;-67
2022/07/15 00:44:12;;;;;;;4.43;2.50;;;;;;;;;;5093230;28;20522;-66
2022/07/15 00:46:41;;;;;;;7.90;3.13;;;;;;;;;;5092877;28;20451;-66
2022/07/15 00:49:09;;;;;;;7.03;3.67;;;;;;;;;;5092796;28;20480;-67
2022/07/15 00:51:37;;;;;;;7.47;3.20;;;;;;;;;;5093043;28;20440;-66
2022/07/15 00:54:05;;;;;;;10.27;2.57;;;;;;;;;;5093017;28;20448;-66
2022/07/15 00:56:37;;;;;;;6.67;3.00;;;;;;;;;;5093139;28;20440;-66
2022/07/15 00:59:04;;;;;;;6.50;3.03;;;;;;;;;;5093662;28;20904;-66
2022/07/15 01:01:31;;;;;;;19.33;3.80;;;;;;;;;;5096798;28;20527;-66
2022/07/15 01:04:01;;;;;;;10.90;2.93;;;;;;;;;;5096850;28;20436;-66
2022/07/15 01:06:29;;;;;;;8.90;3.20;;;;;;;;;;5096649;28;20441;-66
2022/07/15 01:08:56;;;;;;;6.83;3.00;;;;;;;;;;5096580;28;20472;-66
2022/07/15 01:11:23;;;;;;;3.70;3.23;;;;;;;;;;5096971;28;20443;-66
2022/07/15 01:13:51;;;;;;;7.03;3.30;;;;;;;;;;5096273;28;20476;-66
2022/07/15 01:16:18;;;;;;;8.87;4.00;;;;;;;;;;5096216;28;20442;-67
2022/07/15 01:18:45;;;;;;;5.87;3.60;;;;;;;;;;5096817;28;20452;-67
2022/07/15 01:21:13;;;;;;;16.43;4.10;;;;;;;;;;5096089;28;20942;-67
2022/07/15 01:23:42;;;;;;;13.63;4.10;;;;;;;;;;5096064;28;20444;-66
2022/07/15 01:26:10;;;;;;;6.90;3.80;;;;;;;;;;5095884;28;20870;-66
2022/07/15 01:28:37;;;;;;;6.20;3.63;;;;;;;;;;5096350;28;20482;-66
2022/07/15 01:31:05;;;;;;;12.23;3.60;;;;;;;;;;5095918;28;20989;-66
2022/07/15 01:33:32;;;;;;;6.77;3.43;;;;;;;;;;5095940;28;20443;-66
2022/07/15 01:36:00;;;;;;;6.03;3.80;;;;;;;;;;5095795;28;20433;-67
2022/07/15 01:38:29;;;;;;;10.13;3.90;;;;;;;;;;5096314;28;20932;-67
2022/07/15 01:40:57;;;;;;;7.80;3.90;;;;;;;;;;5095691;28;20446;-67
2022/07/15 01:43:24;;;;;;;8.10;3.97;;;;;;;;;;5096531;28;20490;-67
2022/07/15 01:45:51;;;;;;;11.87;4.33;;;;;;;;;;5095687;28;20955;-67
2022/07/15 01:51:04;;;;;;;10.73;4.20;;;;;;;;;;5095631;28;20398;-67
2022/07/15 01:53:32;;;;;;;7.53;3.60;;;;;;;;;;5096054;28;20532;-66
2022/07/15 01:55:59;;;;;;;9.47;3.80;;;;;;;;;;5096094;28;20534;-66
2022/07/15 01:58:27;;;;;;;5.23;3.60;;;;;;;;;;5095691;28;20527;-66
2022/07/15 02:00:54;;;;;;;6.50;4.00;;;;;;;;;;5095598;28;20435;-66
2022/07/15 02:03:21;;;;;;;7.87;3.97;;;;;;;;;;5095247;28;20440;-66
2022/07/15 02:05:48;;;;;;;5.47;4.53;;;;;;;;;;5095597;28;20874;-67
2022/07/15 02:08:15;;;;;;;7.07;4.40;;;;;;;;;;5095063;28;20482;-66
2022/07/15 02:10:44;;;;;;;6.90;4.23;;;;;;;;;;5094330;28;20925;-66
2022/07/15 02:13:13;;;;;;;8.67;4.83;;;;;;;;;;5094849;28;20437;-66
2022/07/15 02:15:40;;;;;;;8.47;4.57;;;;;;;;;;5095395;28;20637;-67
2022/07/15 02:18:08;;;;;;;7.13;3.80;;;;;;;;;;5094925;28;21017;-66
2022/07/15 02:20:35;;;;;;;6.50;3.83;;;;;;;;;;5095015;28;20445;-66
2022/07/15 02:23:03;;;;;;;7.03;4.30;;;;;;;;;;5095193;28;20451;-67
2022/07/15 02:25:31;;;;;;;7.43;4.00;;;;;;;;;;5095468;28;20451;-66
2022/07/15 02:28:01;;;;;;;8.97;5.37;;;;;;;;;;5095066;28;20448;-66
2022/07/15 02:30:29;;;;;;;8.53;4.37;;;;;;;;;;5095382;28;20563;-66
2022/07/15 02:32:56;;;;;;;7.47;4.17;;;;;;;;;;5094721;28;20435;-67
2022/07/15 02:35:24;;;;;;;7.43;3.87;;;;;;;;;;5095065;28;20444;-66
2022/07/15 02:37:51;;;;;;;7.97;5.07;;;;;;;;;;5094886;28;20785;-66
2022/07/15 02:40:18;;;;;;;10.80;3.80;;;;;;;;;;5095091;28;20494;-66
2022/07/15 02:42:49;;;;;;;6.63;4.00;;;;;;;;;;5094486;28;20946;-66
2022/07/15 02:45:18;;;;;;;11.27;4.63;;;;;;;;;;5094752;28;20909;-66
2022/07/15 02:47:45;;;;;;;10.40;4.23;;;;;;;;;;5094911;28;20442;-67
2022/07/15 02:50:12;;;;;;;6.00;4.33;;;;;;;;;;5095003;28;20486;-66
2022/07/15 02:52:40;;;;;;;10.70;4.40;;;;;;;;;;5094813;28;20834;-66
2022/07/15 02:55:07;;;;;;;6.77;3.80;;;;;;;;;;5094568;28;20458;-67
2022/07/15 02:57:35;;;;;;;11.90;4.27;;;;;;;;;;5094988;28;20440;-66
2022/07/15 03:00:02;;;;;;;5.90;4.30;;;;;;;;;;5094219;28;20458;-66
2022/07/15 03:02:31;;;;;;;11.50;4.33;;;;;;;;;;5094499;28;20466;-66
2022/07/15 03:04:58;;;;;;;9.83;4.40;;;;;;;;;;5094168;28;20531;-66
2022/07/15 03:07:25;;;;;;;8.43;4.90;;;;;;;;;;5094473;28;20527;-66
2022/07/15 03:09:53;;;;;;;9.63;4.23;;;;;;;;;;5094431;28;20558;-67
2022/07/15 03:12:20;;;;;;;7.20;4.47;;;;;;;;;;5094672;28;20530;-67
2022/07/15 03:14:47;;;;;;;7.93;4.23;;;;;;;;;;5094063;28;20474;-66
2022/07/15 03:17:14;;;;;;;7.30;5.57;;;;;;;;;;5094573;28;20523;-66
2022/07/15 03:19:43;;;;;;;6.77;3.70;;;;;;;;;;5093977;28;20534;-67
2022/07/15 03:22:10;;;;;;;9.23;4.03;;;;;;;;;;5093897;28;20523;-66
2022/07/15 03:24:37;;;;;;;6.30;4.00;;;;;;;;;;5094209;28;20827;-66
2022/07/15 03:27:04;;;;;;;9.93;4.73;;;;;;;;;;5094109;28;20534;-66
2022/07/15 03:29:32;;;;;;;10.10;4.93;;;;;;;;;;5093567;28;21017;-67
2022/07/15 03:31:59;;;;;;;9.80;4.83;;;;;;;;;;5094588;28;20842;-66
2022/07/15 03:34:26;;;;;;;8.60;5.57;;;;;;;;;;5093888;28;20435;-66
2022/07/15 03:36:55;;;;;;;14.63;5.50;;;;;;;;;;5093645;28;20440;-66
2022/07/15 03:39:22;;;;;;;10.13;4.80;;;;;;;;;;5093842;28;20443;-66
2022/07/15 03:41:49;;;;;;;15.47;5.90;;;;;;;;;;5093887;28;20867;-66
2022/07/15 03:44:17;;;;;;;9.70;5.97;;;;;;;;;;5093978;28;20864;-66
2022/07/15 03:46:45;;;;;;;9.53;5.60;;;;;;;;;;5093485;28;20963;-64
2022/07/15 03:49:12;;;;;;;6.47;4.80;;;;;;;;;;5093243;28;20478;-64
2022/07/15 03:51:39;;;;;;;11.73;6.23;;;;;;;;;;5093431;28;20531;-65
2022/07/15 03:54:08;;;;;;;7.67;5.37;;;;;;;;;;5093742;28;20514;-64
2022/07/15 03:56:36;;;;;;;7.13;5.17;;;;;;;;;;5076505;28;20535;-65
2022/07/15 03:59:04;;;;;;;10.47;5.57;;;;;;;;;;5072397;28;20487;-65
2022/07/15 04:01:31;;;;;;;8.73;5.00;;;;;;;;;;5072718;28;20445;-66
2022/07/15 04:03:58;;;;;;;9.13;4.90;;;;;;;;;;5072908;28;20872;-65
2022/07/15 04:06:26;;;;;;;11.70;4.67;;;;;;;;;;5072765;28;20448;-65
2022/07/15 04:08:53;;;;;;;13.40;4.83;;;;;;;;;;5072865;28;20531;-65
2022/07/15 04:11:22;;;;;;;9.50;4.90;;;;;;;;;;5073237;28;20445;-65
2022/07/15 04:13:49;;;;;;;6.33;4.20;;;;;;;;;;5072783;28;20551;-65
2022/07/15 04:16:16;;;;;;;10.00;4.60;;;;;;;;;;5073086;28;20446;-65
2022/07/15 04:18:43;;;;;;;5.60;4.13;;;;;;;;;;5072525;28;20441;-65
2022/07/15 04:21:11;;;;;;;10.90;3.70;;;;;;;;;;5072986;28;20851;-65
2022/07/15 04:23:38;;;;;;;9.27;4.47;;;;;;;;;;5073086;28;20928;-65
2022/07/15 04:26:05;;;;;;;15.77;4.97;;;;;;;;;;5084579;28;20196;-65
2022/07/15 04:28:34;;;;;;;10.87;4.73;;;;;;;;;;5093160;28;21027;-65
2022/07/15 04:31:01;;;;;;;6.90;4.50;;;;;;;;;;5093380;28;20657;-65
2022/07/15 04:33:28;;;;;;;10.10;4.10;;;;;;;;;;5092776;28;20928;-64
2022/07/15 04:35:56;;;;;;;15.57;4.60;;;;;;;;;;5096883;28;20545;-65
2022/07/15 04:38:23;;;;;;;5.47;3.90;;;;;;;;;;5096513;28;20557;-65
2022/07/15 04:40:51;;;;;;;7.00;4.53;;;;;;;;;;5096911;28;20456;-65
2022/07/15 04:43:18;;;;;;;5.27;3.80;;;;;;;;;;5097259;28;20799;-65
2022/07/15 04:45:47;;;;;;;6.73;4.00;;;;;;;;;;5096689;28;20446;-65
2022/07/15 04:50:59;;;;;;;9.57;4.10;;;;;;;;;;5096581;28;20454;-65
2022/07/15 04:53:26;;;;;;;5.40;3.40;;;;;;;;;;5097086;28;20439;-64
2022/07/15 04:55:53;;;;;;;8.60;4.17;;;;;;;;;;5096349;28;20462;-65
2022/07/15 04:58:21;;;;;;;10.13;4.20;;;;;;;;;;5096445;28;20442;-65
2022/07/15 05:00:49;;;;;;;5.00;3.80;;;;;;;;;;5096454;28;20439;-65
2022/07/15 05:03:17;;;;;;;8.10;3.53;;;;;;;;;;5096611;28;20443;-65
2022/07/15 05:05:44;;;;;;;8.60;4.40;;;;;;;;;;5096524;28;20444;-64
2022/07/15 05:08:11;;;;;;;7.67;3.73;;;;;;;;;;5097007;28;20443;-65
2022/07/15 05:10:38;;;;;;;9.93;4.20;;;;;;;;;;5096064;28;20558;-65
2022/07/15 05:13:06;;;;;;;9.73;3.57;;;;;;;;;;5096260;28;20510;-65
2022/07/15 05:15:34;;;;;;;8.30;4.30;;;;;;;;;;5096463;28;20435;-65
2022/07/15 05:18:02;;;;;;;6.23;3.20;;;;;;;;;;5096501;28;20443;-65
2022/07/15 05:20:30;;;;;;;8.33;3.43;;;;;;;;;;5096384;28;20439;-65
2022/07/15 05:22:57;;;;;;;13.43;4.27;;;;;;;;;;5096405;28;20523;-63
2022/07/15 05:25:24;;;;;;;14.03;3.70;;;;;;;;;;5096058;28;20456;-67
2022/07/15 05:27:52;;;;;;;5.63;3.20;;;;;;;;;;5096474;28;20444;-65
2022/07/15 05:30:19;;;;;;;8.20;3.33;;;;;;;;;;5095813;28;20966;-65
2022/07/15 05:32:47;;;;;;;16.57;2.93;;;;;;;;;;5095949;28;20448;-65
2022/07/15 05:35:15;;;;;;;8.70;3.37;;;;;;;;;;5096096;28;20445;-65
2022/07/15 05:37:43;;;;;;;9.73;3.00;;;;;;;;;;5096234;28;20884;-65
2022/07/15 05:40:11;;;;;;;10.90;3.23;;;;;;;;;;5095688;28;20444;-65
2022/07/15 05:42:39;;;;;;;7.00;2.80;;;;;;;;;;5095708;28;20454;-65
2022/07/15 05:45:07;;;;;;;7.90;2.70;;;;;;;;;;5095499;28;20435;-65
2022/07/15 05:47:35;;;;;;;9.47;3.03;;;;;;;;;;5095588;28;20444;-64
2022/07/15 05:50:02;;;;;;;6.77;2.40;;;;;;;;;;5096085;28;20486;-65
2022/07/15 05:52:30;;;;;;;4.30;2.70;;;;;;;;;;5095862;28;20448;-65
2022/07/15 05:54:58;;;;;;;8.70;2.60;;;;;;;;;;5095908;28;20541;-65
2022/07/15 05:57:25;;;;;;;6.43;2.23;;;;;;;;;;5095405;28;20447;-65
2022/07/15 05:59:52;;;;;;;6.50;2.57;;;;;;;;;;5095588;28;20451;-65
2022/07/15 06:02:19;;;;;;;8.73;2.67;;;;;;;;;;5095608;28;20472;-64
2022/07/15 06:04:47;;;;;;;10.73;2.87;;;;;;;;;;5095539;28;20452;-65
2022/07/15 06:07:14;;;;;;;8.30;2.47;;;;;;;;;;5095559;28;20446;-64
2022/07/15 06:09:42;;;;;;;9.87;2.90;;;;;;;;;;5095029;28;21003;-65
2022/07/15 06:12:10;;;;;;;9.13;3.00;;;;;;;;;;5095282;28;21005;-65
2022/07/15 06:14:37;;;;;;;8.23;2.60;;;;;;;;;;5095027;28;20478;-65
2022/07/15 06:17:04;;;;;;;6.43;2.40;;;;;;;;;;5095709;28;20439;-65
2022/07/15 06:19:32;;;;;;;4.93;2.03;;;;;;;;;;5095453;28;20531;-65
2022/07/15 06:22:00;;;;;;;10.73;2.87;;;;;;;;;;5094911;28;20440;-65
2022/07/15 06:24:27;;;;;;;5.47;2.30;;;;;;;;;;5095085;28;20451;-65
2022/07/15 06:26:55;;;;;;;9.13;3.03;;;;;;;;;;5095148;28;20444;-65
2022/07/15 06:29:23;;;;;;;14.53;2.80;;;;;;;;;;5094848;28;20451;-65
2022/07/15 06:31:51;;;;;;;8.20;2.57;;;;;;;;;;5094962;28;20560;-65
2022/07/15 06:34:18;;;;;;;7.70;2.23;;;;;;;;;;5095065;28;20874;-65
2022/07/15 06:36:45;;;;;;;4.33;2.60;;;;;;;;;;5095157;28;20450;-65
2022/07/15 06:39:12;;;;;;;6.10;2.63;;;;;;;;;;5095314;28;20455;-65
2022/07/15 06:41:40;;;;;;;8.43;3.07;;;;;;;;;;5094483;28;20948;-65
2022/07/15 06:44:08;;;;;;;6.40;2.40;;;;;;;;;;5094873;28;20541;-65
2022/07/15 06:46:35;;;;;;;9.50;3.00;;;;;;;;;;5094640;28;20537;-65
2022/07/15 06:49:03;;;;;;;8.27;3.67;;;;;;;;;;5094413;28;20448;-65
2022/07/15 06:51:30;;;;;;;12.80;2.83;;;;;;;;;;5094595;28;20567;-65
2022/07/15 06:53:57;;;;;;;8.00;2.33;;;;;;;;;;5094466;28;20484;-65
2022/07/15 06:56:24;;;;;;;10.20;2.47;;;;;;;;;;5094736;28;20473;-65
2022/07/15 06:58:51;;;;;;;9.70;3.20;;;;;;;;;;5094629;28;20442;-65
2022/07/15 07:01:20;;;;;;;7.80;2.43;;;;;;;;;;5094423;28;20539;-64
2022/07/15 07:03:47;;;;;;;5.13;2.03;;;;;;;;;;5094171;28;20937;-65
2022/07/15 07:06:15;;;;;;;7.10;2.37;;;;;;;;;;5094333;28;20480;-64
2022/07/15 07:08:42;;;;;;;4.90;2.00;;;;;;;;;;5094392;28;20438;-65
2022/07/15 07:11:09;;;;;;;7.03;2.13;;;;;;;;;;5094180;28;20472;-65
2022/07/15 07:13:37;;;;;;;6.30;2.33;;;;;;;;;;5094092;28;20465;-65
2022/07/15 07:16:04;;;;;;;7.60;2.03;;;;;;;;;;5094088;28;20455;-65
2022/07/15 07:18:33;;;;;;;5.00;2.10;;;;;;;;;;5094282;28;20487;-65
2022/07/15 07:21:01;;;;;;;4.63;1.83;;;;;;;;;;5094095;28;20933;-65
2022/07/15 07:23:29;;;;;;;3.90;1.87;;;;;;;;;;5094213;28;20450;-65
2022/07/15 07:25:57;;;;;;;4.30;2.47;;;;;;;;;;5094528;28;20798;-65
2022/07/15 07:28:24;;;;;;;5.40;2.83;;;;;;;;;;5094030;28;20441;-64
2022/07/15 07:30:54;;;;;;;6.50;1.90;;;;;;;;;;5093585;28;20477;-65
2022/07/15 07:33:21;;;;;;;6.17;1.73;;;;;;;;;;5094042;28;20479;-64
2022/07/15 07:35:51;;;;;;;5.00;1.83;;;;;;;;;;5094044;28;20867;-65
2022/07/15 07:38:19;;;;;;;6.27;2.00;;;;;;;;;;5093996;28;20469;-65
2022/07/15 07:40:48;;;;;;;5.67;2.30;;;;;;;;;;5093827;28;20446;-66
2022/07/15 07:43:16;;;;;;;6.60;2.17;;;;;;;;;;5093970;28;20562;-66
2022/07/15 07:45:43;;;;;;;5.60;2.37;;;;;;;;;;5093823;28;20443;-66
2022/07/15 07:48:10;;;;;;;4.77;1.80;;;;;;;;;;5094015;28;20476;-64
2022/07/15 07:50:37;;;;;;;3.43;1.53;;;;;;;;;;5093438;28;20475;-64
2022/07/15 07:53:06;;;;;;;9.47;1.93;;;;;;;;;;5093382;28;20444;-64
2022/07/15 07:55:33;;;;;;;8.27;2.00;;;;;;;;;;5093850;28;20466;-64
2022/07/15 07:58:01;;;;;;;8.20;2.00;;;;;;;;;;5093736;28;20842;-65
2022/07/15 08:00:28;;;;;;;11.87;2.13;;;;;;;;;;5094077;28;20454;-65
2022/07/15 08:02:56;;;;;;;6.63;1.90;;;;;;;;;;5093705;28;20548;-65
2022/07/15 08:05:24;;;;;;;5.80;1.93;;;;;;;;;;5093654;28;20477;-65
2022/07/15 08:07:51;;;;;;;3.80;1.90;;;;;;;;;;5093290;28;20946;-65
2022/07/15 08:10:20;;;;;;;4.10;1.63;;;;;;;;;;5096218;28;20444;-65
2022/07/15 08:12:47;;;;;;;12.20;4.03;;;;;;;;;;5097727;28;20982;-65
2022/07/15 08:15:15;;;;;;;5.30;1.67;;;;;;;;;;5097656;28;20948;-65
2022/07/15 08:17:42;;;;;;;5.40;2.43;;;;;;;;;;5097227;28;20447;-65
2022/07/15 08:20:10;;;;;;;3.70;1.83;;;;;;;;;;5097299;28;20472;-65
2022/07/15 08:22:37;;;;;;;5.13;1.77;;;;;;;;;;5097248;28;20930;-65
2022/07/15 08:25:05;;;;;;;3.00;1.47;;;;;;;;;;5097561;28;20554;-65
2022/07/15 08:27:34;;;;;;;3.03;1.73;;;;;;;;;;5097887;28;20452;-65
2022/07/15 08:30:01;;;;;;;6.50;1.70;;;;;;;;;;5097173;28;20447;-65
2022/07/15 08:32:29;;;;;;;2.97;2.17;;;;;;;;;;5097728;28;20909;-65
2022/07/15 08:34:56;;;;;;;1.70;1.50;;;;;;;;;;5097146;28;20472;-65
2022/07/15 08:37:26;;;;;;;5.13;1.67;;;;;;;;;;5097145;28;20931;-64
2022/07/15 08:39:53;;;;;;;5.87;1.53;;;;;;;;;;5097380;28;20432;-66
2022/07/15 08:42:20;;;;;;;8.77;1.77;;;;;;;;;;5097188;28;20884;-65
2022/07/15 08:44:49;;;;;;;12.53;6.70;;;;;;;;;;5097265;28;20446;-65
2022/07/15 08:47:16;;;;;;;3.20;1.77;;;;;;;;;;5097488;28;20542;-65
2022/07/15 08:49:44;;;;;;;7.00;1.80;;;;;;;;;;5097189;28;20493;-65
2022/07/15 08:52:13;;;;;;;9.90;2.23;;;;;;;;;;5096553;28;20482;-64
2022/07/15 08:54:40;;;;;;;4.43;1.60;;;;;;;;;;5097154;28;20529;-65
2022/07/15 08:57:07;;;;;;;6.10;1.67;;;;;;;;;;5096898;28;20450;-65
2022/07/15 08:59:34;;;;;;;3.93;1.50;;;;;;;;;;5096796;28;20965;-65
2022/07/15 09:02:03;;;;;;;3.30;1.70;;;;;;;;;;5096917;28;20545;-66
2022/07/15 09:04:30;;;;;;;4.80;1.50;;;;;;;;;;5096605;28;20538;-66
2022/07/15 09:07:03;;;;;;;2.87;1.47;;;;;;;;;;5096436;28;20447;-66
2022/07/15 09:09:31;;;;;;;1.80;1.37;;;;;;;;;;5097376;28;20788;-65
2022/07/15 09:11:59;;;;;;;4.10;1.57;;;;;;;;;;5096493;28;20475;-66
2022/07/15 09:14:28;;;;;;;4.73;1.70;;;;;;;;;;5096899;28;20508;-65
2022/07/15 09:17:10;;;;;;;4.37;1.83;;;;;;;;;;5096648;28;20448;-65
2022/07/15 09:19:58;;;;;;;2.60;1.83;;;;;;;;;;5083681;28;20487;-65
2022/07/15 09:22:27;;;;;;;5.50;2.80;;;;;;;;;;5096192;28;20437;-65
2022/07/15 09:25:02;;;;;;;2.40;1.40;;;;;;;;;;5096834;28;20779;-65
2022/07/15 09:27:30;;;;;;;5.30;1.50;;;;;;;;;;5096936;28;20814;-65
2022/07/15 09:38:31;;;;;;;3.43;1.53;;;;;;;;;;5095940;28;20399;-65
2022/07/15 09:40:58;;;;;;;3.20;1.50;;;;;;;;;;5096203;28;20520;-65
2022/07/15 09:43:26;;;;;;;4.30;1.60;;;;;;;;;;5095987;28;20469;-65
2022/07/15 09:45:58;;;;;;;4.13;1.80;;;;;;;;;;5095659;28;20450;-65
2022/07/15 09:48:28;;;;;;;2.87;1.73;;;;;;;;;;5096481;28;20770;-65
2022/07/15 09:50:59;;;;;;;5.30;1.80;;;;;;;;;;5096333;28;20572;-65
2022/07/15 09:53:26;;;;;;;4.97;2.23;;;;;;;;;;5095751;28;20422;-66
2022/07/15 09:55:56;;;;;;;4.80;1.53;;;;;;;;;;5096270;28;20456;-65
2022/07/15 09:58:23;;;;;;;3.07;1.50;;;;;;;;;;5096289;28;20501;-65
2022/07/15 10:00:52;;;;;;;3.67;1.40;;;;;;;;;;5095772;28;20528;-64
2022/07/15 10:03:22;;;;;;;2.20;1.40;;;;;;;;;;5095403;28;20543;-65
2022/07/15 10:05:51;;;;;;;2.43;1.50;;;;;;;;;;5096405;28;20555;-65
2022/07/15 10:08:19;;;;;;;2.50;1.20;;;;;;;;;;5095610;28;20435;-65
2022/07/15 10:10:50;;;;;;;4.10;1.30;;;;;;;;;;5095173;28;20928;-65
2022/07/15 10:13:24;;;;;;;2.70;1.60;;;;;;;;;;5094957;28;20482;-65
2022/07/15 10:15:56;;;;;;;5.50;1.57;;;;;;;;;;5095218;28;20497;-66
2022/07/15 10:18:32;;;;;;;3.17;1.60;;;;;;;;;;5095026;28;20457;-66
2022/07/15 10:21:08;;;;;;;2.07;1.60;;;;;;;;;;5095755;28;20828;-66
2022/07/15 10:23:49;;;;;;;2.20;1.33;;;;;;;;;;5095289;28;20452;-65
2022/07/15 10:26:23;;;;;;;3.93;1.27;;;;;;;;;;5095243;28;20432;-65
2022/07/15 10:28:54;;;;;;;4.60;1.40;;;;;;;;;;5094850;28;20474;-65
2022/07/15 10:31:23;;;;;;;4.03;1.50;;;;;;;;;;5095080;28;20496;-65
2022/07/15 10:34:08;;;;;;;5.97;1.20;;;;;;;;;;5094266;28;20442;-65
2022/07/15 10:36:40;;;;;;;2.50;1.57;;;;;;;;;;5095119;28;20524;-65
2022/07/15 10:39:08;;;;;;;2.73;1.47;;;;;;;;;;5095211;28;20776;-65
2022/07/15 10:41:49;;;;;;;3.07;1.30;;;;;;;;;;5094618;28;20491;-66
2022/07/15 10:44:18;;;;;;;2.03;1.60;;;;;;;;;;5095000;28;20500;-65
2022/07/15 10:46:45;;;;;;;5.10;1.70;;;;;;;;;;5095158;28;20525;-66
2022/07/15 10:49:32;;;;;;;6.00;2.00;;;;;;;;;;5095153;28;20513;-65
2022/07/15 10:52:15;;;;;;;5.13;1.30;;;;;;;;;;5094707;28;20540;-65
2022/07/15 10:54:47;;;;;;;1.27;1.17;;;;;;;;;;5094589;28;20465;-65
2022/07/15 10:57:16;;;;;;;3.20;1.20;;;;;;;;;;5094404;28;20961;-65
2022/07/15 10:59:51;;;;;;;2.93;1.97;;;;;;;;;;5094306;28;20439;-65
2022/07/15 11:02:20;;;;;;;7.10;1.67;;;;;;;;;;5094815;28;20441;-65
2022/07/15 11:04:48;;;;;;;3.63;1.57;;;;;;;;;;5094391;28;20466;-65
2022/07/15 11:07:22;;;;;;;7.00;1.60;;;;;;;;;;5094884;28;20439;-65
2022/07/15 11:09:50;;;;;;;1.90;1.13;;;;;;;;;;5094511;28;20445;-65
2022/07/15 11:12:19;;;;;;;2.00;1.30;;;;;;;;;;5094021;28;20473;-65
2022/07/15 11:14:55;;;;;;;4.40;1.80;;;;;;;;;;5093975;28;21059;-66
2022/07/15 11:17:24;;;;;;;5.27;1.30;;;;;;;;;;5094509;28;20457;-65
2022/07/15 11:19:53;;;;;;;3.10;1.33;;;;;;;;;;5094129;28;20526;-66
2022/07/15 11:22:22;;;;;;;6.07;2.17;;;;;;;;;;5094260;28;20450;-65
2022/07/15 11:24:49;;;;;;;1.20;1.10;;;;;;;;;;5094615;28;20448;-65
2022/07/15 11:27:17;;;;;;;1.57;1.17;;;;;;;;;;5094594;28;20825;-65
2022/07/15 11:29:45;;;;;;;1.90;1.20;;;;;;;;;;5093701;28;20451;-65
2022/07/15 11:32:14;;;;;;;3.67;1.23;;;;;;;;;;5093848;28;20564;-65
2022/07/15 11:34:43;;;;;;;2.27;1.20;;;;;;;;;;5093902;28;20447;-65
2022/07/15 11:37:12;;;;;;;2.90;1.50;;;;;;;;;;5094291;28;20529;-65
2022/07/15 11:39:40;;;;;;;3.97;1.50;;;;;;;;;;5093447;28;20492;-65
2022/07/15 11:44:52;;;;;;;3.90;1.20;;;;;;;;;;5093738;28;20399;-66
2022/07/15 11:47:22;;;;;;;3.40;1.30;;;;;;;;;;5094066;28;20452;-66
2022/07/15 11:49:50;;;;;;;1.60;1.20;;;;;;;;;;5093813;28;20434;-65
2022/07/15 11:52:23;;;;;;;2.60;1.10;;;;;;;;;;5093673;28;20473;-65
2022/07/15 11:54:51;;;;;;;2.80;1.43;;;;;;;;;;5093614;28;20910;-66
2022/07/15 11:57:18;;;;;;;2.77;1.40;;;;;;;;;;5093769;28;20533;-66
2022/07/15 11:59:53;;;;;;;3.23;1.33;;;;;;;;;;5093292;28;20439;-66
2022/07/15 12:02:24;;;;;;;1.10;0.97;;;;;;;;;;5093302;28;20490;-65
2022/07/15 12:04:51;;;;;;;1.47;1.00;;;;;;;;;;5093303;28;20915;-66
2022/07/15 12:07:19;;;;;;;1.80;1.20;;;;;;;;;;5093552;28;20535;-66
2022/07/15 12:09:47;;;;;;;2.87;1.10;;;;;;;;;;5093193;28;20443;-66
2022/07/15 12:12:14;;;;;;;1.07;1.00;;;;;;;;;;5093502;28;20530;-65
2022/07/15 12:14:42;;;;;;;3.80;1.50;;;;;;;;;;5093545;28;20477;-66
2022/07/15 12:17:10;;;;;;;2.80;1.10;;;;;;;;;;5093203;28;20940;-66
2022/07/15 12:19:39;;;;;;;1.67;1.40;;;;;;;;;;5093357;28;20436;-66
2022/07/15 12:22:07;;;;;;;4.00;1.23;;;;;;;;;;5093419;28;20446;-66
2022/07/15 12:24:38;;;;;;;1.20;1.10;;;;;;;;;;5093118;28;20447;-66
2022/07/15 12:27:05;;;;;;;4.20;1.13;;;;;;;;;;5093050;28;20535;-65
2022/07/15 12:29:34;;;;;;;4.00;1.10;;;;;;;;;;5092995;28;20477;-66
2022/07/15 12:32:01;;;;;;;1.87;1.30;;;;;;;;;;5092980;28;20506;-65
2022/07/15 12:34:43;;;;;;;2.13;1.10;;;;;;;;;;5093435;28;20483;-65
2022/07/15 12:37:12;;;;;;;1.30;1.20;;;;;;;;;;5092757;28;20449;-65
2022/07/15 12:39:54;;;;;;;1.63;1.00;;;;;;;;;;5092863;28;20538;-65
2022/07/15 12:42:21;;;;;;;1.17;1.00;;;;;;;;;;5093089;28;20924;-65
2022/07/15 12:45:06;;;;;;;2.03;1.13;;;;;;;;;;5093222;28;20451;-65
2022/07/15 12:47:33;;;;;;;2.80;1.10;;;;;;;;;;5092862;28;20453;-65
2022/07/15 12:50:01;;;;;;;1.30;1.20;;;;;;;;;;5092725;28;20518;-65
2022/07/15 12:52:34;;;;;;;2.20;1.20;;;;;;;;;;5093416;28;20570;-65
2022/07/15 12:55:02;;;;;;;1.30;1.20;;;;;;;;;;5093504;28;20534;-65
2022/07/15 12:57:34;;;;;;;2.50;1.13;;;;;;;;;;5096920;28;20888;-64
2022/07/15 13:00:03;;;;;;;1.50;1.10;;;;;;;;;;5096966;28;20481;-64
2022/07/15 13:02:31;;;;;;;1.10;1.00;;;;;;;;;;5096828;28;20446;-64
2022/07/15 13:04:58;;;;;;;1.20;1.10;;;;;;;;;;5097084;28;20450;-64
2022/07/15 13:07:26;;;;;;;1.63;1.20;;;;;;;;;;5097284;28;20447;-62
2022/07/15 13:09:54;;;;;;;1.33;1.10;;;;;;;;;;5096767;28;20804;-64
2022/07/15 13:12:22;;;;;;;2.03;1.20;;;;;;;;;;5096519;28;20485;-65
2022/07/15 13:14:49;;;;;;;1.40;1.20;;;;;;;;;;5096315;28;20485;-64
2022/07/15 13:17:16;;;;;;;1.93;1.13;;;;;;;;;;5096121;28;20986;-65
2022/07/15 13:19:43;;;;;;;3.83;1.00;;;;;;;;;;5096682;28;20867;-65
2022/07/15 13:22:11;;;;;;;1.83;1.43;;;;;;;;;;5096392;28;20443;-65
2022/07/15 13:24:38;;;;;;;1.47;1.10;;;;;;;;;;5096377;28;20446;-65
2022/07/15 13:27:06;;;;;;;1.43;1.10;;;;;;;;;;5085167;28;20516;-65
2022/07/15 13:29:34;;;;;;;1.20;1.00;;;;;;;;;;5075242;28;20802;-65
2022/07/15 13:32:01;;;;;;;1.80;1.20;;;;;;;;;;5075278;28;20440;-65
2022/07/15 13:34:28;;;;;;;1.20;1.10;;;;;;;;;;5075239;28;20449;-65
2022/07/15 13:36:55;;;;;;;1.20;1.10;;;;;;;;;;5074789;28;20937;-65
2022/07/15 13:39:23;;;;;;;1.80;1.27;;;;;;;;;;5075074;28;20444;-65
2022/07/15 13:41:50;;;;;;;1.20;1.10;;;;;;;;;;5075595;28;20437;-65
2022/07/15 13:44:18;;;;;;;1.63;1.17;;;;;;;;;;5075277;28;20823;-65
2022/07/15 13:46:45;;;;;;;1.73;1.27;;;;;;;;;;5075003;28;20531;-65
2022/07/15 13:49:13;;;;;;;2.13;1.10;;;;;;;;;;5075523;28;20548;-65
2022/07/15 13:51:40;;;;;;;2.20;1.10;;;;;;;;;;5075253;28;20547;-65
2022/07/15 13:54:08;;;;;;;4.60;1.27;;;;;;;;;;5075379;28;20480;-65
2022/07/15 13:56:35;;;;;;;2.83;1.20;;;;;;;;;;5081562;28;20484;-65
2022/07/15 13:59:02;;;;;;;2.70;1.20;;;;;;;;;;5095298;28;20450;-65
2022/07/15 14:01:32;;;;;;;3.47;1.20;;;;;;;;;;5095526;28;20496;-65
2022/07/15 14:03:59;;;;;;;4.00;1.07;;;;;;;;;;5095492;28;20460;-65
2022/07/15 14:06:26;;;;;;;2.23;1.10;;;;;;;;;;5094624;28;20450;-65
2022/07/15 14:08:53;;;;;;;2.40;1.03;;;;;;;;;;5094512;28;20953;-65
2022/07/15 14:11:21;;;;;;;1.20;1.10;;;;;;;;;;5095021;28;20450;-65
2022/07/15 14:13:48;;;;;;;5.70;1.83;;;;;;;;;;5095362;28;20825;-65
2022/07/15 14:16:15;;;;;;;1.57;1.30;;;;;;;;;;5095186;28;20839;-65
2022/07/15 14:18:45;;;;;;;1.17;1.00;;;;;;;;;;5095556;28;20778;-65
2022/07/15 14:21:12;;;;;;;5.23;1.20;;;;;;;;;;5095292;28;20807;-65
2022/07/15 14:23:40;;;;;;;1.60;1.43;;;;;;;;;;5095168;28;20446;-65
2022/07/15 14:26:07;;;;;;;1.50;1.40;;;;;;;;;;5094642;28;20447;-65
2022/07/15 14:28:34;;;;;;;1.80;1.70;;;;;;;;;;5095115;28;20447;-65
2022/07/15 14:31:02;;;;;;;2.57;1.10;;;;;;;;;;5094666;28;20530;-65
2022/07/15 14:33:29;;;;;;;6.83;2.20;;;;;;;;;;5094868;28;20558;-65
2022/07/15 14:35:57;;;;;;;1.77;1.00;;;;;;;;;;5094761;28;20535;-65
2022/07/15 14:38:24;;;;;;;1.77;1.00;;;;;;;;;;5094635;28;20534;-65
2022/07/15 14:40:52;;;;;;;1.77;1.00;;;;;;;;;;5094421;28;20447;-65
2022/07/15 14:43:19;;;;;;;1.27;1.13;;;;;;;;;;5094818;28;20546;-65
2022/07/15 14:45:46;;;;;;;2.33;2.00;;;;;;;;;;5094843;28;20862;-65
2022/07/15 14:48:13;;;;;;;3.50;1.33;;;;;;;;;;5094460;28;20530;-65
2022/07/15 14:50:40;;;;;;;1.80;1.23;;;;;;;;;;5094219;28;20466;-65
2022/07/15 14:53:09;;;;;;;1.57;1.07;;;;;;;;;;5094458;28;20482;-65
2022/07/15 14:55:36;;;;;;;2.60;1.20;;;;;;;;;;5094908;28;20559;-66
2022/07/15 14:58:04;;;;;;;1.40;1.30;;;;;;;;;;5094177;28;20498;-65
2022/07/15 15:00:31;;;;;;;1.20;1.00;;;;;;;;;;5094162;28;20440;-65
2022/07/15 15:02:58;;;;;;;1.63;1.03;;;;;;;;;;5094001;28;20443;-65
2022/07/15 15:05:26;;;;;;;1.23;1.13;;;;;;;;;;5094359;28;20534;-65